Time;durP1;ratioP1;P1;durP2;ratioP2;P2;SDS_P1;SDS_P2;PMS_P1;PMS_P2;Temp;Humidity;BMP_temperature;BMP_pressure;BME280_temperature;BME280_humidity;BME280_pressure;Samples;Min_cycle;Max_cycle;Signal;HPM_P1;HPM_P2
2023/11/19 00:00:40;;;;;;;6.55;3.63;;;4.60;99.90;;;;;;7564240;19;20018;-73
2023/11/19 00:03:23;;;;;;;8.23;4.80;;;4.70;99.90;;;;;;7560154;19;20609;-73
2023/11/19 00:05:56;;;;;;;8.85;5.18;;;4.70;99.90;;;;;;7550883;19;20271;-72
2023/11/19 00:08:28;;;;;;;5.80;4.03;;;4.60;99.90;;;;;;7563001;19;20046;-73
2023/11/19 00:11:01;;;;;;;5.93;3.25;;;4.60;99.90;;;;;;7558999;19;20010;-73
2023/11/19 00:13:33;;;;;;;7.50;3.78;;;4.60;99.90;;;;;;7554893;19;20018;-72
2023/11/19 00:16:07;;;;;;;7.20;4.40;;;4.70;99.90;;;;;;7540011;19;20085;-73
2023/11/19 00:18:41;;;;;;;7.65;4.15;;;4.70;99.90;;;;;;7549684;19;20022;-73
2023/11/19 00:21:13;;;;;;;5.30;4.03;;;4.60;99.90;;;;;;7545917;19;22169;-73
2023/11/19 00:23:45;;;;;;;7.50;3.78;;;4.70;99.90;;;;;;7539543;19;20014;-73
2023/11/19 00:26:17;;;;;;;6.40;3.70;;;4.70;99.90;;;;;;7557907;19;20033;-73
2023/11/19 00:28:56;;;;;;;12.20;5.78;;;4.70;99.90;;;;;;7555667;19;20053;-73
2023/11/19 00:31:28;;;;;;;;;;;4.70;99.90;;;;;;7552375;19;20010;-72
2023/11/19 00:34:02;;;;;;;11.97;5.60;;;4.70;99.90;;;;;;7556789;19;20535;-72
2023/11/19 00:36:34;;;;;;;11.45;5.88;;;4.70;99.90;;;;;;7539658;19;22601;-72
2023/11/19 00:39:07;;;;;;;6.60;4.53;;;4.70;99.90;;;;;;7535855;19;20834;-72
2023/11/19 00:41:40;;;;;;;7.53;4.72;;;4.80;99.90;;;;;;7564759;19;20014;-72
2023/11/19 00:44:12;;;;;;;10.00;4.82;;;4.80;99.90;;;;;;7533326;19;20296;-73
2023/11/19 00:46:45;;;;;;;5.88;3.75;;;4.90;99.90;;;;;;7530503;19;20014;-73
2023/11/19 00:49:17;;;;;;;8.35;4.45;;;4.90;99.90;;;;;;7550660;19;20022;-72
2023/11/19 00:51:49;;;;;;;5.30;3.40;;;5.00;99.90;;;;;;7557069;19;20090;-72
2023/11/19 00:54:25;;;;;;;6.10;3.70;;;5.00;99.90;;;;;;7547280;19;20027;-72
2023/11/19 00:56:58;;;;;;;4.88;3.05;;;5.10;99.90;;;;;;7540032;19;20300;-72
2023/11/19 00:59:30;;;;;;;5.32;3.03;;;5.10;99.90;;;;;;7548930;19;20678;-73
2023/11/19 01:02:03;;;;;;;6.22;3.70;;;5.10;99.90;;;;;;7552290;19;20025;-73
2023/11/19 01:04:36;;;;;;;8.40;4.03;;;5.20;99.90;;;;;;7554939;19;20018;-73
2023/11/19 01:07:12;;;;;;;8.27;3.85;;;5.20;99.90;;;;;;7547103;19;20018;-73
2023/11/19 01:09:46;;;;;;;7.63;4.60;;;5.30;99.90;;;;;;7559041;19;20014;-73
2023/11/19 01:12:18;;;;;;;6.03;3.75;;;5.20;99.90;;;;;;7558657;19;20019;-73
2023/11/19 01:14:51;;;;;;;6.90;3.70;;;5.30;99.90;;;;;;7543795;19;20018;-73
2023/11/19 01:17:23;;;;;;;8.18;4.50;;;5.30;99.90;;;;;;7504809;19;21590;-73
2023/11/19 01:19:55;;;;;;;5.32;3.40;;;5.40;99.90;;;;;;7557743;19;20015;-73
2023/11/19 01:22:27;;;;;;;8.63;4.88;;;5.40;99.90;;;;;;7549280;19;20025;-73
2023/11/19 01:25:00;;;;;;;8.15;3.47;;;5.30;99.90;;;;;;7554899;19;20018;-73
2023/11/19 01:27:36;;;;;;;7.47;3.90;;;5.40;99.90;;;;;;7545629;19;21501;-73
2023/11/19 01:30:12;;;;;;;7.57;3.67;;;5.40;99.90;;;;;;7542115;19;20122;-73
2023/11/19 01:32:45;;;;;;;6.07;3.58;;;5.40;99.90;;;;;;7547838;19;20025;-73
2023/11/19 01:35:17;;;;;;;4.53;2.83;;;5.50;99.90;;;;;;7554660;19;20014;-73
2023/11/19 01:37:50;;;;;;;4.15;2.83;;;5.50;99.90;;;;;;7553830;19;20674;-73
2023/11/19 01:40:22;;;;;;;4.28;3.10;;;5.50;99.90;;;;;;7539356;19;20014;-73
2023/11/19 01:42:55;;;;;;;3.17;2.35;;;5.60;99.90;;;;;;7532640;19;20172;-73
2023/11/19 01:45:29;;;;;;;4.95;2.58;;;5.60;99.90;;;;;;7539585;19;20106;-73
2023/11/19 01:48:06;;;;;;;3.95;2.70;;;5.60;99.90;;;;;;7541615;19;20018;-72
2023/11/19 01:50:39;;;;;;;4.43;2.85;;;5.70;99.90;;;;;;7555028;19;20017;-73
2023/11/19 01:53:12;;;;;;;5.18;2.65;;;5.60;99.90;;;;;;7546517;19;20519;-72
2023/11/19 01:55:46;;;;;;;4.88;2.90;;;5.70;99.90;;;;;;7543648;19;20592;-73
2023/11/19 01:58:19;;;;;;;5.20;2.83;;;5.70;99.90;;;;;;7553001;19;20018;-73
2023/11/19 02:00:52;;;;;;;4.53;2.72;;;5.70;99.90;;;;;;7539251;19;20025;-72
2023/11/19 02:03:29;;;;;;;4.13;2.88;;;5.80;99.90;;;;;;7514347;19;20505;-73
2023/11/19 02:06:03;;;;;;;5.18;3.10;;;5.80;99.90;;;;;;7543539;19;20106;-72
2023/11/19 02:08:35;;;;;;;;;;;5.80;99.90;;;;;;7540955;19;20749;-72
2023/11/19 02:11:08;;;;;;;5.47;2.85;;;5.80;99.90;;;;;;7537483;19;19929;-72
2023/11/19 02:13:41;;;;;;;6.90;3.23;;;5.80;99.90;;;;;;7529455;19;20014;-73
2023/11/19 02:16:14;;;;;;;5.25;2.88;;;5.80;99.90;;;;;;7522867;19;20018;-72
2023/11/19 02:18:47;;;;;;;6.22;3.15;;;5.80;99.90;;;;;;7530564;19;20511;-73
2023/11/19 02:21:20;;;;;;;4.45;2.97;;;5.90;99.90;;;;;;7528411;19;20024;-73
2023/11/19 02:23:53;;;;;;;7.13;3.47;;;5.90;99.90;;;;;;7528546;19;20044;-73
2023/11/19 02:26:33;;;;;;;6.72;3.60;;;6.00;99.90;;;;;;7529643;19;21071;-73
2023/11/19 02:29:06;;;;;;;5.70;3.55;;;5.90;99.90;;;;;;7524080;19;20014;-73
2023/11/19 02:31:39;;;;;;;7.63;4.50;;;5.90;99.90;;;;;;7519410;19;21701;-73
2023/11/19 02:34:12;;;;;;;6.93;4.00;;;6.00;99.90;;;;;;7527852;19;20011;-73
2023/11/19 02:36:47;;;;;;;7.77;4.47;;;6.00;99.90;;;;;;7539948;19;20488;-73
2023/11/19 02:39:21;;;;;;;9.00;4.65;;;6.10;99.90;;;;;;7527580;19;21365;-73
2023/11/19 02:41:53;;;;;;;6.57;3.42;;;6.10;99.90;;;;;;7527574;19;20059;-73
2023/11/19 02:44:29;;;;;;;5.88;3.17;;;6.20;99.90;;;;;;7492086;19;20022;-73
2023/11/19 02:47:05;;;;;;;6.10;3.40;;;6.30;99.90;;;;;;7509305;19;20962;-73
2023/11/19 02:49:37;;;;;;;3.78;2.65;;;6.40;99.90;;;;;;7528412;19;20010;-74
2023/11/19 02:52:10;;;;;;;5.43;3.08;;;6.40;99.90;;;;;;7524404;19;20025;-73
2023/11/19 02:54:43;;;;;;;5.97;2.93;;;6.50;99.90;;;;;;7535970;19;20011;-73
2023/11/19 02:57:19;;;;;;;3.08;2.40;;;6.50;99.90;;;;;;7531809;19;20477;-73
2023/11/19 02:59:56;;;;;;;11.85;2.97;;;6.60;99.90;;;;;;7456040;19;21649;-74
2023/11/19 03:02:33;;;;;;;4.30;2.33;;;6.70;99.90;;;;;;7487451;19;20026;-72
2023/11/19 03:05:08;;;;;;;5.53;2.42;;;6.70;99.90;;;;;;7533488;19;20060;-72
2023/11/19 03:07:44;;;;;;;3.35;2.20;;;6.80;99.90;;;;;;7515843;19;20048;-72
2023/11/19 03:10:16;;;;;;;5.05;2.70;;;6.90;99.90;;;;;;7482739;19;20015;-72
2023/11/19 03:12:48;;;;;;;6.90;2.75;;;7.00;99.90;;;;;;7528840;19;20717;-72
2023/11/19 03:15:20;;;;;;;7.05;2.70;;;7.00;99.90;;;;;;7521397;19;20495;-72
2023/11/19 03:17:54;;;;;;;6.85;3.25;;;7.10;99.90;;;;;;7535308;19;20075;-73
2023/11/19 03:20:27;;;;;;;;;;;7.10;99.90;;;;;;7532680;19;20386;-72
2023/11/19 03:23:03;;;;;;;7.82;3.58;;;7.20;99.90;;;;;;7531298;19;20028;-72
2023/11/19 03:25:36;;;;;;;4.20;3.13;;;7.20;99.90;;;;;;7528523;19;20025;-72
2023/11/19 03:28:09;;;;;;;5.88;3.35;;;7.20;99.90;;;;;;7508993;19;20018;-71
2023/11/19 03:30:41;;;;;;;6.97;3.35;;;7.20;99.90;;;;;;7505985;19;20404;-72
2023/11/19 03:33:13;;;;;;;5.50;3.35;;;7.30;99.90;;;;;;7526143;19;20015;-72
2023/11/19 03:35:46;;;;;;;4.25;2.80;;;7.30;99.90;;;;;;7519326;19;20022;-72
2023/11/19 03:38:18;;;;;;;5.65;2.75;;;7.40;99.90;;;;;;7526343;19;20015;-72
2023/11/19 03:40:51;;;;;;;4.60;3.03;;;7.40;99.90;;;;;;7529930;19;20022;-71
2023/11/19 03:43:23;;;;;;;7.80;3.55;;;7.40;99.90;;;;;;7530831;19;20287;-72
2023/11/19 03:45:55;;;;;;;4.45;3.08;;;7.40;99.90;;;;;;7513179;19;20022;-72
2023/11/19 03:48:28;;;;;;;6.22;2.65;;;7.50;99.90;;;;;;7534656;19;20303;-72
2023/11/19 03:51:00;;;;;;;6.33;4.03;;;7.50;99.90;;;;;;7540870;19;20007;-72
2023/11/19 03:53:34;;;;;;;6.68;4.88;;;7.50;99.90;;;;;;7531726;19;20289;-72
2023/11/19 03:56:08;;;;;;;;;;;7.60;99.90;;;;;;7526151;19;20025;-72
2023/11/19 03:58:42;;;;;;;6.35;4.53;;;7.60;99.90;;;;;;7542370;19;19921;-72
2023/11/19 04:01:14;;;;;;;4.33;3.00;;;7.60;99.90;;;;;;7518970;19;20019;-72
2023/11/19 04:03:47;;;;;;;5.10;2.97;;;7.60;99.90;;;;;;7544991;19;20294;-72
2023/11/19 04:06:23;;;;;;;4.78;2.72;;;7.60;99.90;;;;;;7546558;19;20056;-72
2023/11/19 04:08:56;;;;;;;3.70;2.27;;;7.70;99.90;;;;;;7537246;19;20101;-72
2023/11/19 04:11:29;;;;;;;3.53;2.15;;;7.80;99.90;;;;;;7527999;19;20637;-72
2023/11/19 04:14:01;;;;;;;3.70;2.63;;;7.80;99.90;;;;;;7534849;19;21371;-71
2023/11/19 04:16:33;;;;;;;2.30;1.92;;;7.90;99.90;;;;;;7498955;19;20018;-72
2023/11/19 04:19:06;;;;;;;3.75;2.10;;;8.00;99.90;;;;;;7523713;19;20037;-73
2023/11/19 04:21:43;;;;;;;7.57;2.58;;;8.00;99.90;;;;;;7517369;19;20015;-73
2023/11/19 04:24:15;;;;;;;8.20;6.38;;;8.00;99.90;;;;;;7522004;19;20006;-73
2023/11/19 04:26:48;;;;;;;6.38;4.65;;;8.10;99.90;;;;;;7504269;19;20014;-73
2023/11/19 04:29:20;;;;;;;10.13;3.55;;;8.00;99.90;;;;;;7541005;19;21842;-73
2023/11/19 04:31:52;;;;;;;9.57;4.80;;;8.00;99.90;;;;;;7506087;19;20573;-73
2023/11/19 04:34:26;;;;;;;;;;;8.00;99.90;;;;;;7536938;19;20014;-72
2023/11/19 04:37:01;;;;;;;11.60;5.13;;;8.00;99.90;;;;;;7532929;19;20352;-73
2023/11/19 04:39:46;;;;;;;10.00;4.18;;;8.00;99.90;;;;;;7541812;19;20018;-71
2023/11/19 04:42:19;;;;;;;5.95;3.15;;;8.00;99.90;;;;;;7512900;19;20026;-74
2023/11/19 04:44:52;;;;;;;4.78;2.92;;;8.10;99.90;;;;;;7526671;19;20033;-73
2023/11/19 04:47:24;;;;;;;4.70;3.00;;;8.10;99.90;;;;;;7500117;19;20011;-74
2023/11/19 04:49:57;;;;;;;5.53;2.70;;;8.10;99.90;;;;;;7520689;19;20061;-73
2023/11/19 04:52:29;;;;;;;4.80;1.90;;;8.10;99.90;;;;;;7523307;19;20025;-74
2023/11/19 04:55:02;;;;;;;3.65;2.15;;;8.20;99.90;;;;;;7525978;19;20018;-73
2023/11/19 04:57:34;;;;;;;2.42;1.73;;;8.30;99.90;;;;;;7534796;19;22243;-74
2023/11/19 05:00:07;;;;;;;2.72;1.60;;;8.30;99.90;;;;;;7516705;19;20022;-73
2023/11/19 05:02:42;;;;;;;1.83;1.17;;;8.50;99.90;;;;;;7506070;19;20649;-73
2023/11/19 05:05:16;;;;;;;7.82;2.42;;;8.60;99.90;;;;;;7539464;19;20123;-73
2023/11/19 05:07:49;;;;;;;7.82;2.00;;;8.70;99.90;;;;;;7524616;19;20012;-73
2023/11/19 05:10:21;;;;;;;4.47;1.80;;;8.90;99.90;;;;;;7540470;19;20014;-73
2023/11/19 05:12:56;;;;;;;2.15;1.63;;;8.90;99.90;;;;;;7555024;19;20025;-73
2023/11/19 05:15:28;;;;;;;2.00;1.38;;;9.10;99.90;;;;;;7547472;19;20094;-74
2023/11/19 05:18:00;;;;;;;3.50;1.77;;;9.10;99.90;;;;;;7539232;19;20014;-73
2023/11/19 05:20:33;;;;;;;2.88;1.58;;;9.20;99.90;;;;;;7477733;19;20014;-73
2023/11/19 05:23:05;;;;;;;2.38;1.60;;;9.30;99.90;;;;;;7532051;19;20030;-73
2023/11/19 05:25:37;;;;;;;1.00;0.90;;;9.40;99.90;;;;;;7527220;19;20378;-74
2023/11/19 05:28:10;;;;;;;2.05;1.48;;;9.40;99.90;;;;;;7535251;19;20025;-73
2023/11/19 05:30:42;;;;;;;2.20;1.70;;;9.50;99.90;;;;;;7524724;19;20010;-73
2023/11/19 05:33:15;;;;;;;2.30;1.42;;;9.60;99.90;;;;;;7557458;19;20011;-73
2023/11/19 05:35:47;;;;;;;1.55;1.15;;;9.60;99.90;;;;;;7530350;19;21862;-73
2023/11/19 05:38:20;;;;;;;3.47;1.55;;;9.60;99.90;;;;;;7546189;19;20089;-73
2023/11/19 05:40:53;;;;;;;4.90;1.50;;;9.70;99.90;;;;;;7521298;19;20014;-74
2023/11/19 05:43:25;;;;;;;3.97;1.80;;;9.60;99.90;;;;;;7521493;19;20026;-74
2023/11/19 05:45:58;;;;;;;2.42;1.25;;;9.60;99.90;;;;;;7522796;19;20018;-74
2023/11/19 05:48:30;;;;;;;3.13;1.40;;;9.60;99.90;;;;;;7528906;19;20044;-73
2023/11/19 05:51:03;;;;;;;1.73;1.50;;;9.60;99.90;;;;;;7540583;19;20086;-73
2023/11/19 05:53:35;;;;;;;2.95;1.48;;;9.60;99.90;;;;;;7509755;19;20018;-74
2023/11/19 05:56:09;;;;;;;2.05;1.42;;;9.70;99.90;;;;;;7532195;19;20010;-74
2023/11/19 05:58:44;;;;;;;5.07;1.70;;;9.70;99.90;;;;;;7543944;19;20097;-74
2023/11/19 06:01:17;;;;;;;1.65;1.23;;;9.70;99.90;;;;;;7513853;19;20010;-73
2023/11/19 06:03:49;;;;;;;2.23;1.40;;;9.70;99.90;;;;;;7525435;19;20010;-73
2023/11/19 06:06:23;;;;;;;1.63;1.10;;;9.70;99.90;;;;;;7539831;19;20019;-74
2023/11/19 06:08:56;;;;;;;1.60;1.10;;;9.80;99.90;;;;;;7527883;19;20025;-74
2023/11/19 06:11:28;;;;;;;1.25;1.10;;;9.80;99.90;;;;;;7523792;19;20152;-74
2023/11/19 06:14:03;;;;;;;0.80;0.80;;;9.80;99.90;;;;;;7523868;19;20063;-74
2023/11/19 06:16:36;;;;;;;2.10;1.20;;;9.90;99.90;;;;;;7516636;19;20661;-74
2023/11/19 06:19:09;;;;;;;2.92;1.08;;;9.90;99.90;;;;;;7529184;19;20090;-74
2023/11/19 06:21:43;;;;;;;;;;;9.90;99.90;;;;;;7539060;19;20018;-73
2023/11/19 06:24:15;;;;;;;2.88;1.70;;;9.80;99.90;;;;;;7541020;19;19914;-74
2023/11/19 06:26:47;;;;;;;2.78;1.20;;;9.80;99.90;;;;;;7528682;19;20038;-73
2023/11/19 06:29:20;;;;;;;9.45;4.80;;;9.80;99.90;;;;;;7528079;19;20389;-73
2023/11/19 06:31:52;;;;;;;1.90;1.40;;;9.80;99.90;;;;;;7488906;19;20006;-73
2023/11/19 06:34:24;;;;;;;1.38;1.00;;;9.80;99.90;;;;;;7513944;19;20010;-74
2023/11/19 06:36:56;;;;;;;2.55;0.75;;;9.90;99.90;;;;;;7485981;19;20775;-73
2023/11/19 06:39:29;;;;;;;2.55;1.10;;;9.90;99.90;;;;;;7538081;19;21302;-74
2023/11/19 06:42:01;;;;;;;0.60;0.60;;;10.00;99.90;;;;;;7531001;19;20014;-74
2023/11/19 06:44:34;;;;;;;1.65;1.02;;;10.00;99.90;;;;;;7528032;19;20014;-74
2023/11/19 06:47:06;;;;;;;1.00;0.80;;;10.00;99.90;;;;;;7509587;19;20025;-73
2023/11/19 06:49:39;;;;;;;1.42;1.00;;;10.00;99.90;;;;;;7521682;19;21405;-74
2023/11/19 06:52:11;;;;;;;1.00;0.90;;;10.00;99.90;;;;;;7532332;19;20426;-74
2023/11/19 06:54:45;;;;;;;1.38;1.13;;;10.00;99.90;;;;;;7512502;19;20570;-74
2023/11/19 06:57:17;;;;;;;1.20;0.65;;;10.10;99.90;;;;;;7495270;19;21523;-74
2023/11/19 06:59:50;;;;;;;1.98;1.23;;;10.20;99.90;;;;;;7510509;19;20109;-74
2023/11/19 07:02:22;;;;;;;1.27;1.13;;;10.20;99.90;;;;;;7493823;19;20018;-74
2023/11/19 07:04:59;;;;;;;1.08;0.98;;;10.20;99.90;;;;;;7481529;19;20022;-74
2023/11/19 07:07:33;;;;;;;1.17;0.60;;;10.20;99.90;;;;;;7503601;19;20027;-73
2023/11/19 07:10:08;;;;;;;1.38;1.15;;;10.30;99.90;;;;;;7490705;19;20594;-74
2023/11/19 07:12:42;;;;;;;0.40;0.40;;;10.30;99.90;;;;;;7502074;19;20098;-74
2023/11/19 07:15:14;;;;;;;2.10;0.60;;;10.30;99.90;;;;;;7529198;19;20102;-74
2023/11/19 07:17:48;;;;;;;1.83;0.52;;;10.40;99.90;;;;;;7512891;19;20007;-75
2023/11/19 07:20:33;;;;;;;0.82;0.60;;;10.40;99.90;;;;;;7537138;19;20019;-74
2023/11/19 07:23:06;;;;;;;0.80;0.70;;;10.40;99.90;;;;;;7528873;19;20868;-74
2023/11/19 07:25:38;;;;;;;0.90;0.60;;;10.40;99.90;;;;;;7512189;19;20030;-75
2023/11/19 07:28:11;;;;;;;0.40;0.40;;;10.50;99.90;;;;;;7509547;19;20019;-74
2023/11/19 07:30:43;;;;;;;1.13;0.70;;;10.50;99.90;;;;;;7519904;19;20018;-74
2023/11/19 07:33:15;;;;;;;1.48;1.13;;;10.60;99.90;;;;;;7503240;19;20025;-74
2023/11/19 07:35:48;;;;;;;1.50;1.20;;;10.60;99.90;;;;;;7535115;19;20464;-74
2023/11/19 07:38:21;;;;;;;3.75;1.27;;;10.60;99.90;;;;;;7515105;19;20019;-74
2023/11/19 07:40:54;;;;;;;1.42;1.10;;;10.60;99.90;;;;;;7522116;19;20907;-75
2023/11/19 07:43:28;;;;;;;1.23;0.80;;;10.70;99.90;;;;;;7529461;19;20048;-75
2023/11/19 07:46:01;;;;;;;1.65;0.90;;;10.60;99.90;;;;;;7510177;19;20478;-74
2023/11/19 07:48:34;;;;;;;1.27;0.80;;;10.70;99.90;;;;;;7496647;19;20052;-74
2023/11/19 07:51:07;;;;;;;0.98;0.68;;;10.80;99.90;;;;;;7523114;19;20632;-74
2023/11/19 07:53:41;;;;;;;1.70;0.73;;;10.90;99.90;;;;;;7523646;19;20021;-74
2023/11/19 07:56:13;;;;;;;0.60;0.50;;;10.70;99.90;;;;;;7529773;19;20287;-74
2023/11/19 07:58:45;;;;;;;0.85;0.52;;;10.80;99.90;;;;;;7550527;19;20367;-74
2023/11/19 08:01:18;;;;;;;3.60;2.72;;;10.80;99.90;;;;;;7511094;19;20812;-74
2023/11/19 08:03:50;;;;;;;0.90;0.70;;;10.70;99.90;;;;;;7501458;19;20822;-74
2023/11/19 08:06:26;;;;;;;1.75;0.50;;;10.80;99.90;;;;;;7520751;19;20018;-74
2023/11/19 08:08:59;;;;;;;0.57;0.50;;;10.90;99.90;;;;;;7477683;19;20236;-74
2023/11/19 08:11:32;;;;;;;1.05;0.75;;;10.80;99.90;;;;;;7475007;19;20114;-73
2023/11/19 08:14:04;;;;;;;2.00;0.65;;;10.80;99.90;;;;;;7511739;19;20022;-73
2023/11/19 08:16:38;;;;;;;2.33;0.82;;;10.80;99.90;;;;;;7529702;19;22445;-74
2023/11/19 08:19:11;;;;;;;1.45;0.82;;;10.90;99.90;;;;;;7502000;19;20018;-73
2023/11/19 08:21:43;;;;;;;1.13;0.60;;;10.90;99.90;;;;;;7482822;19;20401;-74
2023/11/19 08:24:15;;;;;;;1.25;0.73;;;10.90;99.90;;;;;;7457545;19;21826;-74
2023/11/19 08:26:47;;;;;;;1.52;0.98;;;10.90;99.90;;;;;;7490359;19;20043;-73
2023/11/19 08:29:34;;;;;;;1.48;1.00;;;10.90;99.90;;;;;;7477423;19;20654;-73
2023/11/19 08:32:07;;;;;;;1.38;1.10;;;11.00;99.90;;;;;;7491691;19;20683;-73
2023/11/19 08:34:39;;;;;;;2.63;0.55;;;10.90;99.90;;;;;;7475902;19;20010;-74
2023/11/19 08:37:12;;;;;;;0.80;0.60;;;11.00;99.90;;;;;;7518188;19;20022;-73
2023/11/19 08:39:46;;;;;;;0.52;0.43;;;11.00;99.90;;;;;;7502920;19;20018;-73
2023/11/19 08:42:19;;;;;;;1.38;0.65;;;11.10;99.90;;;;;;7513373;19;20019;-73
2023/11/19 08:44:54;;;;;;;1.27;1.02;;;11.10;99.90;;;;;;7507900;19;20010;-73
2023/11/19 08:47:26;;;;;;;4.20;2.35;;;11.10;99.90;;;;;;7481134;19;20097;-74
2023/11/19 08:49:59;;;;;;;2.75;1.60;;;11.10;99.90;;;;;;7514513;19;21477;-73
2023/11/19 08:52:34;;;;;;;1.25;0.82;;;11.10;99.90;;;;;;7517406;19;20093;-73
2023/11/19 08:55:07;;;;;;;1.23;0.90;;;11.20;99.90;;;;;;7406934;19;20053;-73
2023/11/19 08:57:40;;;;;;;1.00;0.65;;;11.20;99.90;;;;;;7521028;19;20025;-73
2023/11/19 09:00:14;;;;;;;1.63;0.90;;;11.30;99.90;;;;;;7496247;19;20021;-73
2023/11/19 09:02:46;;;;;;;0.93;0.63;;;11.30;99.90;;;;;;7479027;19;20688;-73
2023/11/19 09:05:19;;;;;;;0.50;0.50;;;11.50;99.90;;;;;;7452542;19;20481;-73
2023/11/19 09:07:52;;;;;;;0.70;0.70;;;11.50;99.90;;;;;;7459203;19;20010;-73
2023/11/19 09:10:25;;;;;;;1.95;0.80;;;11.40;99.90;;;;;;7445104;19;20035;-72
2023/11/19 09:12:57;;;;;;;1.60;0.80;;;11.40;99.90;;;;;;7456198;19;20011;-73
2023/11/19 09:15:30;;;;;;;1.15;0.80;;;11.40;99.90;;;;;;7472906;19;20029;-73
2023/11/19 09:18:04;;;;;;;3.33;0.93;;;11.30;99.90;;;;;;7430118;19;20023;-74
2023/11/19 09:20:38;;;;;;;3.60;0.70;;;11.40;99.90;;;;;;7480957;19;20011;-75
2023/11/19 09:23:12;;;;;;;0.90;0.55;;;11.40;99.90;;;;;;7500147;19;20776;-76
2023/11/19 09:25:45;;;;;;;0.75;0.70;;;11.30;99.90;;;;;;7493443;19;20018;-75
2023/11/19 09:28:17;;;;;;;1.52;0.75;;;11.30;99.90;;;;;;7513768;19;20029;-75
2023/11/19 09:30:49;;;;;;;0.75;0.47;;;11.40;99.90;;;;;;7470828;19;20097;-75
2023/11/19 09:33:22;;;;;;;0.88;0.75;;;11.30;99.90;;;;;;7457000;19;21799;-75
2023/11/19 09:35:54;;;;;;;0.80;0.63;;;11.40;99.90;;;;;;7465146;19;20048;-73
2023/11/19 09:38:27;;;;;;;3.75;2.80;;;11.50;99.90;;;;;;7480216;19;20018;-76
2023/11/19 09:41:01;;;;;;;1.02;0.75;;;11.60;99.90;;;;;;7459313;19;20027;-73
2023/11/19 09:43:36;;;;;;;1.20;0.90;;;11.60;99.90;;;;;;7445111;19;21501;-73
2023/11/19 09:46:15;;;;;;;1.42;0.70;;;11.60;99.90;;;;;;7473573;19;20013;-75
2023/11/19 09:48:52;;;;;;;1.58;0.88;;;11.70;99.90;;;;;;7450349;19;20053;-75
2023/11/19 09:51:25;;;;;;;3.80;1.02;;;11.70;99.90;;;;;;7460061;19;20042;-75
2023/11/19 09:53:57;;;;;;;1.08;0.65;;;11.70;99.90;;;;;;7434135;19;21403;-74
2023/11/19 09:56:30;;;;;;;0.95;0.85;;;11.60;99.90;;;;;;7451096;19;20166;-73
2023/11/19 09:59:03;;;;;;;2.38;0.90;;;11.70;99.90;;;;;;7461924;19;20018;-75
2023/11/19 10:01:36;;;;;;;0.50;0.50;;;11.70;99.90;;;;;;7355853;19;20011;-76
2023/11/19 10:04:12;;;;;;;2.35;0.75;;;11.70;99.90;;;;;;7414443;19;20018;-76
2023/11/19 10:06:44;;;;;;;0.95;0.65;;;11.80;99.90;;;;;;7432077;19;20056;-75
2023/11/19 10:09:17;;;;;;;3.00;0.60;;;11.90;99.90;;;;;;7469371;19;20014;-73
2023/11/19 10:11:49;;;;;;;0.93;0.60;;;11.90;99.90;;;;;;7483239;19;20014;-75
2023/11/19 10:14:23;;;;;;;0.73;0.73;;;12.10;99.90;;;;;;7445980;19;20275;-78
2023/11/19 10:16:57;;;;;;;1.55;0.60;;;12.10;99.90;;;;;;7488256;19;20010;-78
2023/11/19 10:19:29;;;;;;;0.95;0.70;;;12.20;99.90;;;;;;7486291;19;20026;-76
2023/11/19 10:22:04;;;;;;;0.63;0.60;;;12.20;99.90;;;;;;7462639;19;20022;-75
2023/11/19 10:24:39;;;;;;;1.05;0.80;;;12.20;99.90;;;;;;7500478;19;20022;-75
2023/11/19 10:27:17;;;;;;;0.98;0.75;;;12.30;99.90;;;;;;7472374;19;20018;-75
2023/11/19 10:29:50;;;;;;;1.57;0.80;;;12.40;99.90;;;;;;7465124;19;20810;-76
2023/11/19 10:32:22;;;;;;;2.22;0.73;;;12.40;99.90;;;;;;7429620;19;20110;-78
2023/11/19 10:35:08;;;;;;;1.08;0.90;;;12.50;99.90;;;;;;7478467;19;20019;-77
2023/11/19 10:37:40;;;;;;;2.38;0.82;;;12.60;99.90;;;;;;7478866;19;20019;-78
2023/11/19 10:40:14;;;;;;;1.25;0.80;;;12.70;99.90;;;;;;7469181;19;21612;-77
2023/11/19 10:42:47;;;;;;;1.95;0.43;;;12.80;99.90;;;;;;7518731;19;20014;-75
2023/11/19 10:45:26;;;;;;;1.38;0.40;;;12.90;99.90;;;;;;7446906;19;21303;-74
2023/11/19 10:48:01;;;;;;;1.10;0.50;;;13.00;99.90;;;;;;7477197;19;21659;-74
2023/11/19 10:50:37;;;;;;;0.40;0.40;;;13.20;99.90;;;;;;7502661;19;20014;-75
2023/11/19 10:53:13;;;;;;;0.60;0.50;;;13.30;99.90;;;;;;7507731;19;24887;-75
2023/11/19 10:55:48;;;;;;;0.60;0.50;;;13.60;99.90;;;;;;7501330;19;20137;-74
2023/11/19 10:58:21;;;;;;;0.45;0.45;;;13.80;99.90;;;;;;7490485;19;20022;-74
